x

Neah Bay, - 6nm North Of Cape Flattery, Wa (traffic Separation Lighted Buoy) (46087) Wave Buoy

4:50pm - Thu 25th Dec 2014 All times are PST. -8 hours from GMT.

  • Sig Wave height 6.9ft
  • Swell Direction
  • Peak Period 10s
  • Average Period 7s
  • Wind
    4mph, 7mph gusts
  • Sea Temp 50°f
  • Air Temp 47°f
  • Sea Pressure 1023.2mb
  • Neah Bay, - 6nm North Of Cape Flattery, Wa     (traffic Separation Lighted Buoy)
  • Neah Bay, - 6nm North Of Cape Flattery, Wa     (traffic Separation Lighted Buoy)

More Historic Weather Station data

Upgrade to MSW Pro to gain access to the past 30 days of data for over 8000 Wavebouys and Weather Stations around the globe.

Join Pro

Comparision Forecast

View Surf forecast
   
Thu 12/25 4:50pm 7ft 10s 7s 4 7 mph 1023.2mb 50f 47f
4:20pm  -   -   -  7 9 mph 1023.1mb 51f 47f
3:50pm 8ft 10s 8s 4 7 mph 1023mb 51f 47f
3:20pm  -   -   -  7 9 mph 1022.9mb 51f 47f
2:50pm 8ft 10s 8s 9 11 mph 1022.7mb 51f 47f
2:20pm  -   -   -  11 13 mph 1022.5mb 51f 47f
1:50pm 9ft 11s 8s 9 11 mph 1022.3mb 51f 47f
1:20pm  -   -   -  7 9 mph 1022.4mb 51f 46f
12:50pm 9ft 11s 8s 7 9 mph 1022.3mb 51f 46f
12:20pm  -   -   -  4 7 mph 1022.4mb 51f 46f
11:50am 9ft 12s 8s 4 7 mph 1022.4mb 50f 45f
11:20am  -   -   -  4 9 mph 1022.4mb 50f 44f
10:50am 10ft 10s 8s 4 9 mph 1022.6mb 50f 43f
10:20am  -   -   -  7 9 mph 1022.2mb 50f 43f
9:50am 10ft 12s 8s 7 9 mph 1022mb 50f 43f
9:20am  -   -   -  4 9 mph 1021.6mb 50f 45f
8:50am 9ft 11s 8s 4 7 mph 1021.2mb 50f 45f
8:20am  -   -   -  9 11 mph 1021mb 50f 45f
7:50am 9ft 11s 8s 2 7 mph 1020.9mb 50f 44f
7:20am  -   -   -  4 7 mph 1020.8mb 50f 44f
6:50am 10.5ft 12s 8s 4 9 mph 1020.6mb 50f 44f
6:20am  -   -   -  4 11 mph 1020.2mb 50f 45f
5:50am 9.5ft 9s 8s 4 7 mph 1020mb 50f 45f
5:20am  -   -   -  7 9 mph 1019.8mb 50f 45f
4:50am 11ft 11s 8s 9 13 mph 1019.5mb 51f 46f
4:20am  -   -   -  11 13 mph 1019.7mb 51f 45f
3:50am 11ft 11s 8s 11 13 mph 1019.5mb 51f 45f
3:20am  -   -   -  11 16 mph 1019.3mb 51f 44f
2:50am 11ft 8s 8s 9 11 mph 1018.9mb 51f 45f
2:20am  -   -   -  13 16 mph 1018.3mb 51f 46f
1:50am 11.5ft 11s 8s 16 20 mph 1018mb 51f 46f
1:20am  -   -   -  13 18 mph 1018mb 51f 46f
12:50am 12ft 10s 8s 13 18 mph 1018mb 51f 46f
12:20am  -   -   -  13 16 mph 1017.6mb 51f 46f
Wed 12/24 11:50pm 13ft 11s 9s 13 18 mph 1017.4mb 51f 46f
11:20pm  -   -   -  13 18 mph 1017.4mb 51f 46f
10:50pm 14ft 11s 9s 13 18 mph 1017.5mb 51f 46f
9:50pm 12ft 11s 9s 11 13 mph 1016.9mb 51f 47f
9:20pm  -   -   -  11 13 mph 1016.6mb 51f 47f
8:50pm 11.5ft 12s 9s 9 13 mph 1016.4mb 51f 47f
8:20pm  -   -   -  7 11 mph 1016.5mb 51f 46f
7:50pm 12.5ft 11s 9s 9 13 mph 1016.1mb 51f 47f
7:20pm  -   -   -  11 13 mph 1015.9mb 51f 47f
6:50pm 11ft 12s 9s 9 13 mph 1015.4mb 51f 48f
6:20pm  -   -   -  11 13 mph 1015.1mb 51f 48f
5:50pm 12ft 13s 9s 13 16 mph 1015mb 51f 48f
5:20pm  -   -   -  13 16 mph 1014.5mb 51f 48f
4:50pm 11.5ft 14s 8s 13 16 mph 1014.4mb 51f 48f
4:20pm  -   -   -  13 18 mph 1014mb 51f 47f
3:50pm 12.5ft 14s 9s 16 20 mph 1014mb 51f 47f
3:20pm  -   -   -  18 20 mph 1013.5mb 51f 47f
2:50pm 12ft 14s 9s 18 25 mph 1013.2mb 51f 47f
2:20pm  -   -   -  18 22 mph 1013mb 51f 47f
1:50pm 12ft 14s 9s 18 25 mph 1012.9mb 51f 47f
1:20pm  -   -   -  20 25 mph 1012.8mb 51f 47f
12:50pm 12ft 15s 10s 20 25 mph 1012.8mb 51f 47f
12:20pm  -   -   -  18 20 mph 1012.8mb 51f 47f
11:50am 13.5ft 12s 10s 9 13 mph 1012.9mb 51f 47f
11:20am  -   -   -  11 16 mph 1013.1mb 51f 47f
10:50am 13ft 13s 10s 7 9 mph 1013.2mb 51f 47f
10:20am  -   -   -  9 13 mph 1013.4mb 51f 46f
9:50am 11.5ft 15s 10s 9 13 mph 1013.4mb 51f 47f
9:20am  -   -   -  9 11 mph 1013.1mb 51f 47f
8:50am 13ft 14s 10s 9 13 mph 1012.9mb 51f 47f
8:20am  -   -   -  9 13 mph 1012.6mb 51f 47f
7:50am 12ft 15s 10s 9 11 mph 1012.7mb 51f 47f
7:20am  -   -   -  11 13 mph 1012.7mb 51f 47f
6:50am 12ft 15s 10s 13 18 mph 1012.8mb 51f 47f
6:20am  -   -   -  13 18 mph 1012.7mb 51f 47f
5:50am 11ft 15s 9s 9 11 mph 1012.8mb 51f 47f
5:20am  -   -   -  9 11 mph 1012.7mb 51f 46f
4:50am 13.5ft 11s 9s 20 29 mph 1013.2mb 51f 47f
4:20am  -   -   -  16 20 mph 1013.3mb 51f 48f
3:50am 13ft 14s 9s 16 22 mph 1013.8mb 51f 48f
3:20am  -   -   -  16 20 mph 1014mb 51f 48f
2:50am 14ft 10s 9s 20 27 mph 1013.9mb 51f 48f
2:20am  -   -   -  13 18 mph 1014.1mb 51f 48f
1:50am 14.5ft 16s 9s 18 25 mph 1014.2mb 51f 50f
1:20am  -   -   -  13 20 mph 1015.1mb 51f 47f
12:50am 14ft 15s 9s 20 27 mph 1015.2mb 52f 47f
12:20am  -   -   -  18 22 mph 1015.3mb 52f 51f
Tue 12/23 11:50pm 14.5ft 14s 9s 16 18 mph 1015.8mb 52f 51f
11:20pm  -   -   -  20 22 mph 1016.2mb 52f 51f
10:50pm 14ft 13s 10s 20 25 mph 1016.3mb 52f 51f
10:20pm  -   -   -  13 22 mph 1016.7mb 52f 49f
9:50pm 13ft 15s 11s 20 25 mph 1016.8mb 52f 51f
9:20pm  -   -   -  16 20 mph 1016.9mb 51f 51f
8:50pm 11ft 13s 11s 16 20 mph 1017.5mb 51f 51f
8:20pm  -   -   -  16 20 mph 1017.5mb 52f 52f
7:50pm 8ft 16s 9s 13 18 mph 1017.8mb 52f 52f
7:20pm  -   -   -  13 18 mph 1018.1mb 52f 52f
6:50pm 7ft 11s 9s 16 18 mph 1018.3mb 53f 52f
6:20pm  -   -   -  16 18 mph 1018.4mb 53f 52f
5:50pm 7ft 16s 9s 16 18 mph 1018.6mb 53f 52f
5:20pm  -   -   -  16 18 mph 1018.6mb 53f 52f
4:50pm 7ft 16s 8s 13 16 mph 1018.6mb 53f 52f
4:20pm  -   -   -  13 16 mph 1018.7mb 53f 52f
3:50pm 6ft 12s 7s 13 16 mph 1018.8mb 53f 52f
3:20pm  -   -   -  16 18 mph 1018.9mb 53f 52f
2:50pm 6ft 12s 7s 18 20 mph 1018.9mb 53f 52f
2:20pm  -   -   -  13 16 mph 1018.4mb 53f 52f
1:50pm 5.5ft 13s 7s 11 16 mph 1018.6mb 53f 52f
1:20pm  -   -   -  16 20 mph 1019mb 53f 50f
12:50pm 6ft 12s 8s 16 20 mph 1019.1mb 53f 50f
12:20pm  -   -   -  16 20 mph 1019.6mb 53f 50f
11:50am 6ft 13s 8s 13 16 mph 1019.6mb 53f 49f
11:20am  -   -   -  11 13 mph 1019.6mb 53f 49f
10:50am 7ft 13s 7s 9 11 mph 1020mb 53f 50f
10:20am  -   -   -  7 11 mph 1019.9mb 53f 50f
9:50am 7ft 12s 6s 13 18 mph 1019.6mb 53f 50f
9:20am  -   -   -  27 38 mph 1018.5mb 53f 50f
8:50am  -   -   -  13 20 mph 1018.7mb 53f 48f
8:20am  -   -   -  22 29 mph 1018mb 53f 47f
7:50am 6.5ft 14s 6s 25 29 mph 1018.5mb 53f 47f
7:20am  -   -   -  25 29 mph 1018.8mb 53f 47f
6:50am 6ft 14s 7s 22 25 mph 1019.7mb 53f 47f
6:20am  -   -   -  22 27 mph 1019.9mb 52f 47f
5:50am 6.5ft 13s 8s 22 27 mph 1020.4mb 53f 47f
5:20am  -   -   -  20 25 mph 1021mb 53f 47f
4:50am 6ft 13s 7s 20 25 mph 1021.3mb 53f 47f
3:50am 6ft 11s 7s 20 22 mph 1022.2mb 52f 47f
3:20am  -   -   -  20 25 mph 1022.7mb 52f 48f
2:50am 7ft 11s 7s 20 25 mph 1022.9mb 51f 48f
2:20am  -   -   -  25 27 mph 1023.4mb 51f 48f
1:50am 7ft 13s 8s 25 29 mph 1023.4mb 51f 48f
1:20am  -   -   -  22 27 mph 1024mb 51f 48f
12:50am 8ft 11s 8s 20 25 mph 1024.5mb 51f 48f
12:20am  -   -   -  22 27 mph 1024.5mb 51f 49f
Mon 12/22 11:50pm 9ft 14s 8s 22 27 mph 1025.1mb 51f 49f
11:20pm  -   -   -  22 29 mph 1025mb 51f 48f
10:50pm 10ft 13s 9s 22 31 mph 1025.2mb 51f 48f
10:20pm  -   -   -  25 29 mph 1025.5mb 51f 48f
9:50pm 10ft 11s 8s 25 31 mph 1025.7mb 51f 48f
9:20pm  -   -   -  22 27 mph 1026mb 52f 49f
8:50pm 10.5ft 13s 9s 22 27 mph 1026.2mb 51f 48f
8:20pm  -   -   -  18 25 mph 1026.8mb 51f 48f
7:50pm 9ft 13s 9s 18 25 mph 1027.1mb 53f 49f
7:20pm  -   -   -  18 22 mph 1027.1mb 53f 49f
6:50pm 9ft 13s 10s 18 20 mph 1027mb 53f 49f
6:20pm  -   -   -  13 20 mph 1027mb 53f 48f
5:50pm 10ft 13s 10s 16 20 mph 1027.2mb 53f 48f
5:20pm  -   -   -  13 20 mph 1027.6mb 53f 48f
4:50pm 10ft 12s 10s 13 16 mph 1028mb 53f 49f
4:20pm  -   -   -  11 16 mph 1027.9mb 53f 48f
3:50pm 11.5ft 11s 10s 9 11 mph 1027.6mb 53f 49f
3:20pm  -   -   -  7 9 mph 1027.8mb 53f 49f
2:50pm 10ft 13s 10s 7 9 mph 1028mb 53f 49f
2:20pm  -   -   -  4 9 mph 1028.1mb 53f 49f
1:50pm 11ft 11s 10s 7 11 mph 1028mb 53f 48f
1:20pm  -   -   -  7 11 mph 1027.6mb 53f 48f
12:50pm 12.5ft 12s 10s 7 11 mph 1027.5mb 53f 48f
12:20pm  -   -   -  4 9 mph 1028.1mb 53f 48f
11:50am 11ft 12s 9s 4 9 mph 1028mb 53f 48f
11:20am  -   -   -  9 11 mph 1027.6mb 53f 47f
10:50am 11ft 14s 10s 11 16 mph 1027.5mb 53f 47f
10:20am  -   -   -  9 13 mph 1027.5mb 53f 46f
9:50am 10ft 14s 10s 9 13 mph 1027.5mb 52f 47f
9:20am  -   -   -  7 11 mph 1027.4mb 53f 46f
8:50am 10ft 13s 10s 2 4 mph 1026.6mb 53f 49f
8:20am  -   -   -  2 4 mph 1026.2mb 53f 49f
7:50am 9.5ft 12s 9s 7 9 mph 1026mb 53f 49f
7:20am  -   -   -  9 13 mph 1026.1mb 53f 49f
6:50am 10ft 13s 9s 16 20 mph 1025.6mb 53f 50f
6:20am  -   -   -  16 20 mph 1025.3mb 53f 50f
5:50am 9ft 12s 9s 16 20 mph 1025mb 53f 50f
5:20am  -   -   -  13 18 mph 1024.1mb 53f 50f
4:50am 11.5ft 12s 9s 13 16 mph 1023.8mb 52f 50f
4:20am  -   -   -  13 18 mph 1023.8mb 53f 50f
3:50am 10.5ft 12s 9s 13 16 mph 1023.7mb 53f 50f
3:20am  -   -   -  16 18 mph 1023.3mb 53f 50f
2:50am 10.5ft 12s 9s 11 13 mph 1022.7mb 53f 51f
2:20am  -   -   -  11 13 mph 1022.4mb 53f 50f
1:50am 10ft 13s 8s 11 13 mph 1021.7mb 53f 51f